sensor_id;sensor_type;location;lat;lon;timestamp;P1;durP1;ratioP1;P2;durP2;ratioP2
17201;SDS011;8717;53.588;10.176;2022-08-20T00:00:58;25.10;;;21.67;;
17201;SDS011;8717;53.588;10.176;2022-08-20T00:03:26;24.93;;;21.83;;
17201;SDS011;8717;53.588;10.176;2022-08-20T00:05:56;24.80;;;22.10;;
17201;SDS011;8717;53.588;10.176;2022-08-20T00:08:24;23.77;;;21.17;;
17201;SDS011;8717;53.588;10.176;2022-08-20T00:10:53;24.67;;;20.60;;
17201;SDS011;8717;53.588;10.176;2022-08-20T00:13:22;22.10;;;18.83;;
17201;SDS011;8717;53.588;10.176;2022-08-20T00:15:52;22.17;;;19.87;;
17201;SDS011;8717;53.588;10.176;2022-08-20T00:18:19;21.30;;;19.00;;
17201;SDS011;8717;53.588;10.176;2022-08-20T00:20:48;22.57;;;20.10;;
17201;SDS011;8717;53.588;10.176;2022-08-20T00:23:16;22.47;;;18.87;;
17201;SDS011;8717;53.588;10.176;2022-08-20T00:25:43;20.93;;;18.73;;
17201;SDS011;8717;53.588;10.176;2022-08-20T00:28:12;21.57;;;18.87;;
17201;SDS011;8717;53.588;10.176;2022-08-20T00:30:40;22.53;;;19.53;;
17201;SDS011;8717;53.588;10.176;2022-08-20T00:33:09;21.00;;;18.80;;
17201;SDS011;8717;53.588;10.176;2022-08-20T00:35:40;20.83;;;17.87;;
17201;SDS011;8717;53.588;10.176;2022-08-20T00:38:08;22.27;;;19.00;;
17201;SDS011;8717;53.588;10.176;2022-08-20T00:40:35;20.83;;;18.20;;
17201;SDS011;8717;53.588;10.176;2022-08-20T00:43:05;20.67;;;17.60;;
17201;SDS011;8717;53.588;10.176;2022-08-20T00:45:51;21.73;;;17.10;;
17201;SDS011;8717;53.588;10.176;2022-08-20T00:48:20;18.83;;;16.67;;
17201;SDS011;8717;53.588;10.176;2022-08-20T00:50:47;20.90;;;17.17;;
17201;SDS011;8717;53.588;10.176;2022-08-20T00:53:14;20.03;;;16.97;;
17201;SDS011;8717;53.588;10.176;2022-08-20T00:55:42;18.17;;;15.57;;
17201;SDS011;8717;53.588;10.176;2022-08-20T00:58:09;17.23;;;15.43;;
17201;SDS011;8717;53.588;10.176;2022-08-20T01:00:40;17.07;;;15.27;;
17201;SDS011;8717;53.588;10.176;2022-08-20T01:03:12;17.40;;;15.00;;
17201;SDS011;8717;53.588;10.176;2022-08-20T01:05:46;16.87;;;14.77;;
17201;SDS011;8717;53.588;10.176;2022-08-20T01:08:15;15.07;;;13.23;;
17201;SDS011;8717;53.588;10.176;2022-08-20T01:10:45;15.47;;;13.77;;
17201;SDS011;8717;53.588;10.176;2022-08-20T01:13:20;15.40;;;13.67;;
17201;SDS011;8717;53.588;10.176;2022-08-20T01:15:50;14.93;;;13.17;;
17201;SDS011;8717;53.588;10.176;2022-08-20T01:18:22;14.40;;;12.10;;
17201;SDS011;8717;53.588;10.176;2022-08-20T01:20:53;15.50;;;12.57;;
17201;SDS011;8717;53.588;10.176;2022-08-20T01:23:23;13.17;;;11.63;;
17201;SDS011;8717;53.588;10.176;2022-08-20T01:25:59;13.70;;;11.50;;
17201;SDS011;8717;53.588;10.176;2022-08-20T01:28:36;13.23;;;11.83;;
17201;SDS011;8717;53.588;10.176;2022-08-20T01:31:07;12.80;;;11.47;;
17201;SDS011;8717;53.588;10.176;2022-08-20T01:33:36;12.63;;;11.03;;
17201;SDS011;8717;53.588;10.176;2022-08-20T01:36:03;12.43;;;10.53;;
17201;SDS011;8717;53.588;10.176;2022-08-20T01:38:31;11.97;;;10.17;;
17201;SDS011;8717;53.588;10.176;2022-08-20T01:41:11;11.47;;;10.27;;
17201;SDS011;8717;53.588;10.176;2022-08-20T01:44:09;12.03;;;10.47;;
17201;SDS011;8717;53.588;10.176;2022-08-20T01:46:38;12.70;;;11.40;;
17201;SDS011;8717;53.588;10.176;2022-08-20T01:49:07;12.83;;;11.27;;
17201;SDS011;8717;53.588;10.176;2022-08-20T01:51:35;12.23;;;11.03;;
17201;SDS011;8717;53.588;10.176;2022-08-20T01:54:02;12.30;;;11.00;;
17201;SDS011;8717;53.588;10.176;2022-08-20T01:56:31;13.27;;;11.47;;
17201;SDS011;8717;53.588;10.176;2022-08-20T01:59:01;12.20;;;10.70;;
17201;SDS011;8717;53.588;10.176;2022-08-20T02:01:32;12.67;;;11.37;;
17201;SDS011;8717;53.588;10.176;2022-08-20T02:04:00;14.47;;;12.00;;
17201;SDS011;8717;53.588;10.176;2022-08-20T02:06:31;14.53;;;12.83;;
17201;SDS011;8717;53.588;10.176;2022-08-20T02:09:02;12.73;;;11.43;;
17201;SDS011;8717;53.588;10.176;2022-08-20T02:11:35;11.63;;;10.43;;
17201;SDS011;8717;53.588;10.176;2022-08-20T02:14:03;11.37;;;10.20;;
17201;SDS011;8717;53.588;10.176;2022-08-20T02:16:34;13.27;;;11.63;;
17201;SDS011;8717;53.588;10.176;2022-08-20T02:19:04;13.57;;;10.43;;
17201;SDS011;8717;53.588;10.176;2022-08-20T02:21:34;13.17;;;11.57;;
17201;SDS011;8717;53.588;10.176;2022-08-20T02:24:03;12.10;;;10.80;;
17201;SDS011;8717;53.588;10.176;2022-08-20T02:26:30;10.63;;;9.53;;
17201;SDS011;8717;53.588;10.176;2022-08-20T02:28:58;11.70;;;10.00;;
17201;SDS011;8717;53.588;10.176;2022-08-20T02:31:25;10.60;;;9.40;;
17201;SDS011;8717;53.588;10.176;2022-08-20T02:33:52;11.03;;;9.73;;
17201;SDS011;8717;53.588;10.176;2022-08-20T02:36:18;11.63;;;10.03;;
17201;SDS011;8717;53.588;10.176;2022-08-20T02:38:45;10.27;;;9.27;;
17201;SDS011;8717;53.588;10.176;2022-08-20T02:41:12;10.87;;;9.77;;
17201;SDS011;8717;53.588;10.176;2022-08-20T02:43:40;13.00;;;10.70;;
17201;SDS011;8717;53.588;10.176;2022-08-20T02:46:09;10.60;;;9.50;;
17201;SDS011;8717;53.588;10.176;2022-08-20T02:48:36;10.27;;;9.27;;
17201;SDS011;8717;53.588;10.176;2022-08-20T02:51:04;10.43;;;9.40;;
17201;SDS011;8717;53.588;10.176;2022-08-20T02:53:32;9.90;;;8.90;;
17201;SDS011;8717;53.588;10.176;2022-08-20T02:56:02;10.10;;;9.03;;
17201;SDS011;8717;53.588;10.176;2022-08-20T02:58:29;11.27;;;10.07;;
17201;SDS011;8717;53.588;10.176;2022-08-20T03:00:56;10.17;;;9.27;;
17201;SDS011;8717;53.588;10.176;2022-08-20T03:03:24;10.23;;;9.17;;
17201;SDS011;8717;53.588;10.176;2022-08-20T03:05:51;10.30;;;9.30;;
17201;SDS011;8717;53.588;10.176;2022-08-20T03:08:20;9.90;;;8.90;;
17201;SDS011;8717;53.588;10.176;2022-08-20T03:10:49;9.67;;;8.67;;
17201;SDS011;8717;53.588;10.176;2022-08-20T03:13:17;11.23;;;8.83;;
17201;SDS011;8717;53.588;10.176;2022-08-20T03:15:45;9.73;;;8.83;;
17201;SDS011;8717;53.588;10.176;2022-08-20T03:18:14;10.50;;;8.87;;
17201;SDS011;8717;53.588;10.176;2022-08-20T03:20:43;9.37;;;8.47;;
17201;SDS011;8717;53.588;10.176;2022-08-20T03:23:10;9.37;;;8.47;;
17201;SDS011;8717;53.588;10.176;2022-08-20T03:25:37;9.30;;;8.40;;
17201;SDS011;8717;53.588;10.176;2022-08-20T03:28:04;9.83;;;8.50;;
17201;SDS011;8717;53.588;10.176;2022-08-20T03:30:31;8.23;;;7.43;;
17201;SDS011;8717;53.588;10.176;2022-08-20T03:32:57;9.80;;;8.80;;
17201;SDS011;8717;53.588;10.176;2022-08-20T03:35:25;11.30;;;10.00;;
17201;SDS011;8717;53.588;10.176;2022-08-20T03:37:55;10.50;;;9.40;;
17201;SDS011;8717;53.588;10.176;2022-08-20T03:40:23;11.57;;;10.07;;
17201;SDS011;8717;53.588;10.176;2022-08-20T03:42:52;13.43;;;10.00;;
17201;SDS011;8717;53.588;10.176;2022-08-20T03:45:19;11.63;;;10.43;;
17201;SDS011;8717;53.588;10.176;2022-08-20T03:47:47;10.83;;;9.33;;
17201;SDS011;8717;53.588;10.176;2022-08-20T03:50:16;11.83;;;10.53;;
17201;SDS011;8717;53.588;10.176;2022-08-20T03:52:45;11.87;;;10.53;;
17201;SDS011;8717;53.588;10.176;2022-08-20T03:55:13;12.17;;;10.87;;
17201;SDS011;8717;53.588;10.176;2022-08-20T03:57:43;13.07;;;11.10;;
17201;SDS011;8717;53.588;10.176;2022-08-20T04:00:12;13.23;;;11.80;;
17201;SDS011;8717;53.588;10.176;2022-08-20T04:02:40;15.17;;;12.77;;
17201;SDS011;8717;53.588;10.176;2022-08-20T04:05:07;14.70;;;11.67;;
17201;SDS011;8717;53.588;10.176;2022-08-20T04:07:34;12.40;;;10.33;;
17201;SDS011;8717;53.588;10.176;2022-08-20T04:10:03;14.53;;;12.60;;
17201;SDS011;8717;53.588;10.176;2022-08-20T04:12:33;14.90;;;12.37;;
17201;SDS011;8717;53.588;10.176;2022-08-20T04:15:01;15.73;;;12.93;;
17201;SDS011;8717;53.588;10.176;2022-08-20T04:17:29;13.70;;;11.93;;
17201;SDS011;8717;53.588;10.176;2022-08-20T04:19:57;16.93;;;12.40;;
17201;SDS011;8717;53.588;10.176;2022-08-20T04:22:24;13.53;;;11.67;;
17201;SDS011;8717;53.588;10.176;2022-08-20T04:24:50;16.33;;;12.17;;
17201;SDS011;8717;53.588;10.176;2022-08-20T04:27:17;15.80;;;13.10;;
17201;SDS011;8717;53.588;10.176;2022-08-20T04:29:46;14.10;;;12.07;;
17201;SDS011;8717;53.588;10.176;2022-08-20T04:32:14;15.50;;;11.93;;
17201;SDS011;8717;53.588;10.176;2022-08-20T04:34:41;14.70;;;11.60;;
17201;SDS011;8717;53.588;10.176;2022-08-20T04:37:08;16.33;;;13.90;;
17201;SDS011;8717;53.588;10.176;2022-08-20T04:39:35;17.60;;;13.17;;
17201;SDS011;8717;53.588;10.176;2022-08-20T04:42:05;15.77;;;12.33;;
17201;SDS011;8717;53.588;10.176;2022-08-20T04:44:31;14.33;;;12.70;;
17201;SDS011;8717;53.588;10.176;2022-08-20T04:46:59;15.07;;;12.03;;
17201;SDS011;8717;53.588;10.176;2022-08-20T04:49:26;16.57;;;12.83;;
17201;SDS011;8717;53.588;10.176;2022-08-20T04:51:53;16.27;;;12.83;;
17201;SDS011;8717;53.588;10.176;2022-08-20T04:54:19;14.50;;;12.57;;
17201;SDS011;8717;53.588;10.176;2022-08-20T04:56:46;14.13;;;12.20;;
17201;SDS011;8717;53.588;10.176;2022-08-20T04:59:13;17.57;;;13.03;;
17201;SDS011;8717;53.588;10.176;2022-08-20T05:01:40;15.23;;;11.77;;
17201;SDS011;8717;53.588;10.176;2022-08-20T05:04:08;17.90;;;12.77;;
17201;SDS011;8717;53.588;10.176;2022-08-20T05:06:37;18.07;;;12.33;;
17201;SDS011;8717;53.588;10.176;2022-08-20T05:09:05;15.20;;;13.17;;
17201;SDS011;8717;53.588;10.176;2022-08-20T05:11:31;16.83;;;11.87;;
17201;SDS011;8717;53.588;10.176;2022-08-20T05:13:59;14.93;;;11.83;;
17201;SDS011;8717;53.588;10.176;2022-08-20T05:16:29;14.27;;;11.20;;
17201;SDS011;8717;53.588;10.176;2022-08-20T05:19:01;14.23;;;11.77;;
17201;SDS011;8717;53.588;10.176;2022-08-20T05:21:29;15.70;;;12.40;;
17201;SDS011;8717;53.588;10.176;2022-08-20T05:23:56;16.83;;;12.57;;
17201;SDS011;8717;53.588;10.176;2022-08-20T05:26:23;16.37;;;11.33;;
17201;SDS011;8717;53.588;10.176;2022-08-20T05:28:50;14.53;;;11.53;;
17201;SDS011;8717;53.588;10.176;2022-08-20T05:31:17;14.37;;;11.93;;
17201;SDS011;8717;53.588;10.176;2022-08-20T05:33:44;13.27;;;11.67;;
17201;SDS011;8717;53.588;10.176;2022-08-20T05:36:15;13.67;;;11.50;;
17201;SDS011;8717;53.588;10.176;2022-08-20T05:38:43;14.40;;;11.30;;
17201;SDS011;8717;53.588;10.176;2022-08-20T05:41:11;13.73;;;11.30;;
17201;SDS011;8717;53.588;10.176;2022-08-20T05:43:38;13.77;;;10.60;;
17201;SDS011;8717;53.588;10.176;2022-08-20T05:46:05;13.27;;;10.70;;
17201;SDS011;8717;53.588;10.176;2022-08-20T05:48:32;14.13;;;10.97;;
17201;SDS011;8717;53.588;10.176;2022-08-20T05:50:59;12.67;;;10.37;;
17201;SDS011;8717;53.588;10.176;2022-08-20T05:53:26;12.60;;;9.97;;
17201;SDS011;8717;53.588;10.176;2022-08-20T05:55:54;12.83;;;10.53;;
17201;SDS011;8717;53.588;10.176;2022-08-20T05:58:22;12.70;;;10.37;;
17201;SDS011;8717;53.588;10.176;2022-08-20T06:00:51;14.07;;;11.37;;
17201;SDS011;8717;53.588;10.176;2022-08-20T06:03:18;11.37;;;9.63;;
17201;SDS011;8717;53.588;10.176;2022-08-20T06:06:04;11.93;;;9.43;;
17201;SDS011;8717;53.588;10.176;2022-08-20T06:08:31;13.67;;;9.57;;
17201;SDS011;8717;53.588;10.176;2022-08-20T06:10:59;10.97;;;9.87;;
17201;SDS011;8717;53.588;10.176;2022-08-20T06:13:26;12.57;;;10.47;;
17201;SDS011;8717;53.588;10.176;2022-08-20T06:15:53;12.17;;;10.03;;
17201;SDS011;8717;53.588;10.176;2022-08-20T06:18:20;12.30;;;9.43;;
17201;SDS011;8717;53.588;10.176;2022-08-20T06:20:47;11.73;;;10.20;;
17201;SDS011;8717;53.588;10.176;2022-08-20T06:23:15;11.97;;;9.73;;
17201;SDS011;8717;53.588;10.176;2022-08-20T06:25:42;12.13;;;9.83;;
17201;SDS011;8717;53.588;10.176;2022-08-20T06:28:11;11.93;;;9.60;;
17201;SDS011;8717;53.588;10.176;2022-08-20T06:30:38;12.40;;;11.03;;
17201;SDS011;8717;53.588;10.176;2022-08-20T06:33:05;12.53;;;11.20;;
17201;SDS011;8717;53.588;10.176;2022-08-20T06:35:32;13.60;;;10.77;;
17201;SDS011;8717;53.588;10.176;2022-08-20T06:38:01;10.55;;;9.23;;
17201;SDS011;8717;53.588;10.176;2022-08-20T06:40:30;12.87;;;11.40;;
17201;SDS011;8717;53.588;10.176;2022-08-20T06:42:58;10.55;;;9.10;;
17201;SDS011;8717;53.588;10.176;2022-08-20T06:45:27;12.00;;;9.60;;
17201;SDS011;8717;53.588;10.176;2022-08-20T06:47:56;9.00;;;7.97;;
17201;SDS011;8717;53.588;10.176;2022-08-20T06:50:28;12.48;;;9.55;;
17201;SDS011;8717;53.588;10.176;2022-08-20T06:53:03;11.80;;;9.40;;
17201;SDS011;8717;53.588;10.176;2022-08-20T06:55:30;10.70;;;9.23;;
17201;SDS011;8717;53.588;10.176;2022-08-20T06:57:58;11.30;;;9.63;;
17201;SDS011;8717;53.588;10.176;2022-08-20T07:00:27;14.00;;;9.77;;
17201;SDS011;8717;53.588;10.176;2022-08-20T07:02:55;11.02;;;9.05;;
17201;SDS011;8717;53.588;10.176;2022-08-20T07:05:24;10.70;;;9.40;;
17201;SDS011;8717;53.588;10.176;2022-08-20T07:07:51;12.00;;;8.60;;
17201;SDS011;8717;53.588;10.176;2022-08-20T07:10:18;13.10;;;8.52;;
17201;SDS011;8717;53.588;10.176;2022-08-20T07:12:46;10.32;;;8.68;;
17201;SDS011;8717;53.588;10.176;2022-08-20T07:15:15;10.98;;;8.88;;
17201;SDS011;8717;53.588;10.176;2022-08-20T07:17:50;10.23;;;8.25;;
17201;SDS011;8717;53.588;10.176;2022-08-20T07:20:18;10.18;;;8.27;;
17201;SDS011;8717;53.588;10.176;2022-08-20T07:22:46;9.40;;;8.10;;
17201;SDS011;8717;53.588;10.176;2022-08-20T07:25:14;11.38;;;7.20;;
17201;SDS011;8717;53.588;10.176;2022-08-20T07:27:43;9.60;;;6.78;;
17201;SDS011;8717;53.588;10.176;2022-08-20T07:30:12;9.07;;;7.45;;
17201;SDS011;8717;53.588;10.176;2022-08-20T07:32:59;7.53;;;6.43;;
17201;SDS011;8717;53.588;10.176;2022-08-20T07:35:25;8.65;;;6.10;;
17201;SDS011;8717;53.588;10.176;2022-08-20T07:37:52;8.65;;;6.55;;
17201;SDS011;8717;53.588;10.176;2022-08-20T07:40:20;7.07;;;6.38;;
17201;SDS011;8717;53.588;10.176;2022-08-20T07:42:48;6.75;;;5.57;;
17201;SDS011;8717;53.588;10.176;2022-08-20T07:45:16;5.90;;;5.15;;
17201;SDS011;8717;53.588;10.176;2022-08-20T07:47:44;6.00;;;5.40;;
17201;SDS011;8717;53.588;10.176;2022-08-20T07:50:13;5.68;;;4.93;;
17201;SDS011;8717;53.588;10.176;2022-08-20T07:52:41;5.55;;;4.47;;
17201;SDS011;8717;53.588;10.176;2022-08-20T07:55:10;5.57;;;3.90;;
17201;SDS011;8717;53.588;10.176;2022-08-20T07:57:39;4.97;;;4.20;;
17201;SDS011;8717;53.588;10.176;2022-08-20T08:00:07;6.20;;;4.10;;
17201;SDS011;8717;53.588;10.176;2022-08-20T08:02:36;4.55;;;3.28;;
17201;SDS011;8717;53.588;10.176;2022-08-20T08:05:04;6.60;;;3.72;;
17201;SDS011;8717;53.588;10.176;2022-08-20T08:07:33;7.50;;;3.47;;
17201;SDS011;8717;53.588;10.176;2022-08-20T08:10:01;5.00;;;3.50;;
17201;SDS011;8717;53.588;10.176;2022-08-20T08:12:31;3.58;;;2.72;;
17201;SDS011;8717;53.588;10.176;2022-08-20T08:15:00;3.83;;;2.70;;
17201;SDS011;8717;53.588;10.176;2022-08-20T08:17:29;6.45;;;3.90;;
17201;SDS011;8717;53.588;10.176;2022-08-20T08:19:56;2.88;;;2.28;;
17201;SDS011;8717;53.588;10.176;2022-08-20T08:22:23;2.88;;;2.38;;
17201;SDS011;8717;53.588;10.176;2022-08-20T08:24:52;3.85;;;2.47;;
17201;SDS011;8717;53.588;10.176;2022-08-20T08:27:18;4.72;;;2.80;;
17201;SDS011;8717;53.588;10.176;2022-08-20T08:29:46;4.55;;;2.70;;
17201;SDS011;8717;53.588;10.176;2022-08-20T08:32:15;3.75;;;2.25;;
17201;SDS011;8717;53.588;10.176;2022-08-20T08:34:42;2.83;;;2.10;;
17201;SDS011;8717;53.588;10.176;2022-08-20T08:37:12;3.38;;;2.35;;
17201;SDS011;8717;53.588;10.176;2022-08-20T08:39:38;4.68;;;2.38;;
17201;SDS011;8717;53.588;10.176;2022-08-20T08:42:16;3.58;;;2.20;;
17201;SDS011;8717;53.588;10.176;2022-08-20T08:44:51;2.45;;;1.70;;
17201;SDS011;8717;53.588;10.176;2022-08-20T08:47:21;3.53;;;2.25;;
17201;SDS011;8717;53.588;10.176;2022-08-20T08:49:53;2.33;;;1.75;;
17201;SDS011;8717;53.588;10.176;2022-08-20T08:52:22;4.38;;;1.70;;
17201;SDS011;8717;53.588;10.176;2022-08-20T08:54:55;3.50;;;1.90;;
17201;SDS011;8717;53.588;10.176;2022-08-20T08:57:26;2.00;;;1.48;;
17201;SDS011;8717;53.588;10.176;2022-08-20T08:59:54;5.78;;;1.60;;
17201;SDS011;8717;53.588;10.176;2022-08-20T09:02:25;4.70;;;1.70;;
17201;SDS011;8717;53.588;10.176;2022-08-20T09:04:53;3.95;;;1.83;;
17201;SDS011;8717;53.588;10.176;2022-08-20T09:07:22;2.75;;;1.50;;
17201;SDS011;8717;53.588;10.176;2022-08-20T09:09:55;3.35;;;1.80;;
17201;SDS011;8717;53.588;10.176;2022-08-20T09:12:23;3.65;;;1.80;;
17201;SDS011;8717;53.588;10.176;2022-08-20T09:14:53;2.35;;;1.80;;
17201;SDS011;8717;53.588;10.176;2022-08-20T09:17:20;5.35;;;2.03;;
17201;SDS011;8717;53.588;10.176;2022-08-20T09:19:49;2.60;;;1.75;;
17201;SDS011;8717;53.588;10.176;2022-08-20T09:22:17;3.83;;;2.22;;
17201;SDS011;8717;53.588;10.176;2022-08-20T09:24:45;4.82;;;1.95;;
17201;SDS011;8717;53.588;10.176;2022-08-20T09:27:12;4.32;;;2.00;;
17201;SDS011;8717;53.588;10.176;2022-08-20T09:29:39;3.80;;;2.10;;
17201;SDS011;8717;53.588;10.176;2022-08-20T09:32:08;3.40;;;1.60;;
17201;SDS011;8717;53.588;10.176;2022-08-20T09:34:37;2.65;;;1.42;;
17201;SDS011;8717;53.588;10.176;2022-08-20T09:37:05;4.00;;;1.50;;
17201;SDS011;8717;53.588;10.176;2022-08-20T09:39:32;2.28;;;1.35;;
17201;SDS011;8717;53.588;10.176;2022-08-20T09:42:05;4.18;;;1.60;;
17201;SDS011;8717;53.588;10.176;2022-08-20T09:44:33;3.08;;;1.45;;
17201;SDS011;8717;53.588;10.176;2022-08-20T09:47:00;2.67;;;1.40;;
17201;SDS011;8717;53.588;10.176;2022-08-20T09:49:28;2.30;;;1.40;;
17201;SDS011;8717;53.588;10.176;2022-08-20T09:51:55;2.65;;;1.40;;
17201;SDS011;8717;53.588;10.176;2022-08-20T09:54:27;4.72;;;1.40;;
17201;SDS011;8717;53.588;10.176;2022-08-20T09:56:55;4.53;;;2.00;;
17201;SDS011;8717;53.588;10.176;2022-08-20T09:59:23;3.85;;;1.77;;
17201;SDS011;8717;53.588;10.176;2022-08-20T10:01:50;3.47;;;1.60;;
17201;SDS011;8717;53.588;10.176;2022-08-20T10:04:16;3.78;;;1.88;;
17201;SDS011;8717;53.588;10.176;2022-08-20T10:06:45;3.88;;;1.48;;
17201;SDS011;8717;53.588;10.176;2022-08-20T10:09:12;4.65;;;1.80;;
17201;SDS011;8717;53.588;10.176;2022-08-20T10:11:39;5.47;;;1.88;;
17201;SDS011;8717;53.588;10.176;2022-08-20T10:14:06;4.15;;;1.70;;
17201;SDS011;8717;53.588;10.176;2022-08-20T10:16:33;4.78;;;1.92;;
17201;SDS011;8717;53.588;10.176;2022-08-20T10:19:00;3.00;;;1.48;;
17201;SDS011;8717;53.588;10.176;2022-08-20T10:21:30;5.55;;;2.10;;
17201;SDS011;8717;53.588;10.176;2022-08-20T10:24:00;4.55;;;1.88;;
17201;SDS011;8717;53.588;10.176;2022-08-20T10:26:26;5.47;;;1.88;;
17201;SDS011;8717;53.588;10.176;2022-08-20T10:28:53;4.80;;;1.60;;
17201;SDS011;8717;53.588;10.176;2022-08-20T10:31:22;5.63;;;2.17;;
17201;SDS011;8717;53.588;10.176;2022-08-20T10:33:49;6.30;;;1.90;;
17201;SDS011;8717;53.588;10.176;2022-08-20T10:36:18;3.63;;;1.77;;
17201;SDS011;8717;53.588;10.176;2022-08-20T10:38:46;4.55;;;1.70;;
17201;SDS011;8717;53.588;10.176;2022-08-20T10:41:15;5.32;;;2.10;;
17201;SDS011;8717;53.588;10.176;2022-08-20T10:43:41;3.90;;;1.65;;
17201;SDS011;8717;53.588;10.176;2022-08-20T10:46:08;4.15;;;1.67;;
17201;SDS011;8717;53.588;10.176;2022-08-20T10:48:38;3.72;;;1.88;;
17201;SDS011;8717;53.588;10.176;2022-08-20T10:51:05;4.15;;;1.60;;
17201;SDS011;8717;53.588;10.176;2022-08-20T10:53:32;6.57;;;2.20;;
17201;SDS011;8717;53.588;10.176;2022-08-20T10:55:59;3.03;;;1.48;;
17201;SDS011;8717;53.588;10.176;2022-08-20T10:58:27;4.25;;;1.60;;
17201;SDS011;8717;53.588;10.176;2022-08-20T11:00:54;5.70;;;1.77;;
17201;SDS011;8717;53.588;10.176;2022-08-20T11:03:20;5.63;;;1.77;;
17201;SDS011;8717;53.588;10.176;2022-08-20T11:05:47;5.18;;;1.65;;
17201;SDS011;8717;53.588;10.176;2022-08-20T11:08:14;3.55;;;1.88;;
17201;SDS011;8717;53.588;10.176;2022-08-20T11:10:41;4.00;;;1.77;;
17201;SDS011;8717;53.588;10.176;2022-08-20T11:13:08;6.22;;;1.92;;
17201;SDS011;8717;53.588;10.176;2022-08-20T11:15:38;4.40;;;1.60;;
17201;SDS011;8717;53.588;10.176;2022-08-20T11:18:07;6.57;;;2.08;;
17201;SDS011;8717;53.588;10.176;2022-08-20T11:20:34;4.65;;;1.80;;
17201;SDS011;8717;53.588;10.176;2022-08-20T11:23:01;4.60;;;1.60;;
17201;SDS011;8717;53.588;10.176;2022-08-20T11:25:28;6.60;;;2.08;;
17201;SDS011;8717;53.588;10.176;2022-08-20T11:27:56;4.40;;;2.03;;
17201;SDS011;8717;53.588;10.176;2022-08-20T11:30:24;5.38;;;1.90;;
17201;SDS011;8717;53.588;10.176;2022-08-20T11:32:54;5.28;;;2.17;;
17201;SDS011;8717;53.588;10.176;2022-08-20T11:35:21;5.72;;;2.35;;
17201;SDS011;8717;53.588;10.176;2022-08-20T11:37:48;6.10;;;1.88;;
17201;SDS011;8717;53.588;10.176;2022-08-20T11:40:15;4.03;;;1.98;;
17201;SDS011;8717;53.588;10.176;2022-08-20T11:42:42;5.50;;;1.95;;
17201;SDS011;8717;53.588;10.176;2022-08-20T11:45:10;9.45;;;2.28;;
17201;SDS011;8717;53.588;10.176;2022-08-20T11:47:36;5.50;;;1.70;;
17201;SDS011;8717;53.588;10.176;2022-08-20T11:50:05;6.05;;;1.95;;
17201;SDS011;8717;53.588;10.176;2022-08-20T11:52:37;4.28;;;1.75;;
17201;SDS011;8717;53.588;10.176;2022-08-20T11:55:04;4.82;;;1.50;;
17201;SDS011;8717;53.588;10.176;2022-08-20T11:57:35;5.32;;;1.60;;
17201;SDS011;8717;53.588;10.176;2022-08-20T12:00:05;5.03;;;1.63;;
17201;SDS011;8717;53.588;10.176;2022-08-20T12:02:35;4.65;;;1.67;;
17201;SDS011;8717;53.588;10.176;2022-08-20T12:05:01;4.25;;;1.48;;
17201;SDS011;8717;53.588;10.176;2022-08-20T12:07:30;4.90;;;1.63;;
17201;SDS011;8717;53.588;10.176;2022-08-20T12:09:56;6.88;;;1.60;;
17201;SDS011;8717;53.588;10.176;2022-08-20T12:12:23;5.57;;;1.55;;
17201;SDS011;8717;53.588;10.176;2022-08-20T12:14:50;4.28;;;1.70;;
17201;SDS011;8717;53.588;10.176;2022-08-20T12:17:19;5.60;;;1.65;;
17201;SDS011;8717;53.588;10.176;2022-08-20T12:19:48;6.38;;;1.58;;
17201;SDS011;8717;53.588;10.176;2022-08-20T12:22:16;4.55;;;1.58;;
17201;SDS011;8717;53.588;10.176;2022-08-20T12:24:44;8.65;;;2.00;;
17201;SDS011;8717;53.588;10.176;2022-08-20T12:27:13;3.50;;;1.63;;
17201;SDS011;8717;53.588;10.176;2022-08-20T12:29:42;4.95;;;1.70;;
17201;SDS011;8717;53.588;10.176;2022-08-20T12:32:10;6.93;;;2.05;;
17201;SDS011;8717;53.588;10.176;2022-08-20T12:34:38;5.72;;;2.58;;
17201;SDS011;8717;53.588;10.176;2022-08-20T12:37:08;4.85;;;1.48;;
17201;SDS011;8717;53.588;10.176;2022-08-20T12:39:36;6.68;;;1.75;;
17201;SDS011;8717;53.588;10.176;2022-08-20T12:42:05;7.00;;;1.80;;
17201;SDS011;8717;53.588;10.176;2022-08-20T12:44:32;4.47;;;1.52;;
17201;SDS011;8717;53.588;10.176;2022-08-20T12:47:08;4.25;;;1.48;;
17201;SDS011;8717;53.588;10.176;2022-08-20T12:49:36;2.70;;;1.27;;
17201;SDS011;8717;53.588;10.176;2022-08-20T12:52:05;4.47;;;1.50;;
17201;SDS011;8717;53.588;10.176;2022-08-20T12:54:32;2.70;;;1.20;;
17201;SDS011;8717;53.588;10.176;2022-08-20T12:56:59;4.20;;;1.58;;
17201;SDS011;8717;53.588;10.176;2022-08-20T12:59:27;4.88;;;1.10;;
17201;SDS011;8717;53.588;10.176;2022-08-20T13:01:54;3.28;;;1.27;;
17201;SDS011;8717;53.588;10.176;2022-08-20T13:04:20;4.68;;;1.50;;
17201;SDS011;8717;53.588;10.176;2022-08-20T13:06:47;4.60;;;1.33;;
17201;SDS011;8717;53.588;10.176;2022-08-20T13:09:14;6.00;;;1.48;;
17201;SDS011;8717;53.588;10.176;2022-08-20T13:11:41;4.03;;;1.10;;
17201;SDS011;8717;53.588;10.176;2022-08-20T13:14:08;3.15;;;1.02;;
17201;SDS011;8717;53.588;10.176;2022-08-20T13:16:36;3.72;;;1.40;;
17201;SDS011;8717;53.588;10.176;2022-08-20T13:19:03;2.75;;;1.13;;
17201;SDS011;8717;53.588;10.176;2022-08-20T13:21:30;3.33;;;1.40;;
17201;SDS011;8717;53.588;10.176;2022-08-20T13:23:56;3.55;;;1.10;;
17201;SDS011;8717;53.588;10.176;2022-08-20T13:26:23;5.40;;;1.60;;
17201;SDS011;8717;53.588;10.176;2022-08-20T13:28:50;2.22;;;1.02;;
17201;SDS011;8717;53.588;10.176;2022-08-20T13:31:16;4.82;;;1.40;;
17201;SDS011;8717;53.588;10.176;2022-08-20T13:33:44;3.30;;;1.15;;
17201;SDS011;8717;53.588;10.176;2022-08-20T13:36:11;5.20;;;1.13;;
17201;SDS011;8717;53.588;10.176;2022-08-20T13:38:38;5.32;;;1.38;;
17201;SDS011;8717;53.588;10.176;2022-08-20T13:41:04;3.70;;;1.23;;
17201;SDS011;8717;53.588;10.176;2022-08-20T13:43:31;5.45;;;1.38;;
17201;SDS011;8717;53.588;10.176;2022-08-20T13:45:58;3.67;;;1.50;;
17201;SDS011;8717;53.588;10.176;2022-08-20T13:48:24;4.60;;;1.20;;
17201;SDS011;8717;53.588;10.176;2022-08-20T13:50:52;4.75;;;1.58;;
17201;SDS011;8717;53.588;10.176;2022-08-20T13:53:19;4.70;;;1.30;;
17201;SDS011;8717;53.588;10.176;2022-08-20T13:55:46;5.40;;;1.50;;
17201;SDS011;8717;53.588;10.176;2022-08-20T13:58:17;3.97;;;1.30;;
17201;SDS011;8717;53.588;10.176;2022-08-20T14:00:45;3.92;;;1.40;;
17201;SDS011;8717;53.588;10.176;2022-08-20T14:03:15;3.35;;;1.23;;
17201;SDS011;8717;53.588;10.176;2022-08-20T14:05:42;4.38;;;1.42;;
17201;SDS011;8717;53.588;10.176;2022-08-20T14:08:11;5.93;;;1.40;;
17201;SDS011;8717;53.588;10.176;2022-08-20T14:10:40;2.35;;;0.98;;
17201;SDS011;8717;53.588;10.176;2022-08-20T14:13:08;3.97;;;1.08;;
17201;SDS011;8717;53.588;10.176;2022-08-20T14:15:36;4.28;;;1.25;;
17201;SDS011;8717;53.588;10.176;2022-08-20T14:18:05;3.83;;;1.00;;
17201;SDS011;8717;53.588;10.176;2022-08-20T14:20:32;5.55;;;1.10;;
17201;SDS011;8717;53.588;10.176;2022-08-20T14:23:00;4.18;;;1.30;;
17201;SDS011;8717;53.588;10.176;2022-08-20T14:25:29;4.75;;;1.10;;
17201;SDS011;8717;53.588;10.176;2022-08-20T14:27:57;3.55;;;1.13;;
17201;SDS011;8717;53.588;10.176;2022-08-20T14:30:25;4.55;;;1.10;;
17201;SDS011;8717;53.588;10.176;2022-08-20T14:32:53;3.70;;;1.25;;
17201;SDS011;8717;53.588;10.176;2022-08-20T14:35:21;5.40;;;1.30;;
17201;SDS011;8717;53.588;10.176;2022-08-20T14:37:50;2.75;;;1.17;;
17201;SDS011;8717;53.588;10.176;2022-08-20T14:40:23;2.80;;;1.30;;
17201;SDS011;8717;53.588;10.176;2022-08-20T14:42:52;3.58;;;1.10;;